sensor_id;sensor_type;location;lat;lon;timestamp;temperature;humidity
74224;SHT31;62585;49.706;18.216;2024-02-14T00:02:55;4.49;76.86
74224;SHT31;62585;49.706;18.216;2024-02-14T00:05:21;4.54;76.90
74224;SHT31;62585;49.706;18.216;2024-02-14T00:07:48;4.45;76.89
74224;SHT31;62585;49.706;18.216;2024-02-14T00:10:14;4.38;77.36
74224;SHT31;62585;49.706;18.216;2024-02-14T00:12:40;4.45;77.45
74224;SHT31;62585;49.706;18.216;2024-02-14T00:15:06;4.45;77.35
74224;SHT31;62585;49.706;18.216;2024-02-14T00:17:33;4.47;77.70
74224;SHT31;62585;49.706;18.216;2024-02-14T00:20:00;4.61;77.41
74224;SHT31;62585;49.706;18.216;2024-02-14T00:22:26;4.62;77.10
74224;SHT31;62585;49.706;18.216;2024-02-14T00:24:52;4.66;77.23
74224;SHT31;62585;49.706;18.216;2024-02-14T00:27:17;4.40;77.75
74224;SHT31;62585;49.706;18.216;2024-02-14T00:29:44;4.75;77.11
74224;SHT31;62585;49.706;18.216;2024-02-14T00:32:12;4.92;77.06
74224;SHT31;62585;49.706;18.216;2024-02-14T00:34:38;4.92;75.94
74224;SHT31;62585;49.706;18.216;2024-02-14T00:37:04;4.93;75.70
74224;SHT31;62585;49.706;18.216;2024-02-14T00:39:30;4.82;75.64
74224;SHT31;62585;49.706;18.216;2024-02-14T00:41:56;4.61;76.65
74224;SHT31;62585;49.706;18.216;2024-02-14T00:44:22;4.66;76.54
74224;SHT31;62585;49.706;18.216;2024-02-14T00:46:48;4.66;75.84
74224;SHT31;62585;49.706;18.216;2024-02-14T00:49:14;4.22;77.10
74224;SHT31;62585;49.706;18.216;2024-02-14T00:51:40;4.25;76.43
74224;SHT31;62585;49.706;18.216;2024-02-14T00:54:06;4.28;76.17
74224;SHT31;62585;49.706;18.216;2024-02-14T00:56:33;3.86;76.64
74224;SHT31;62585;49.706;18.216;2024-02-14T00:59:00;3.76;77.28
74224;SHT31;62585;49.706;18.216;2024-02-14T01:01:26;4.06;76.61
74224;SHT31;62585;49.706;18.216;2024-02-14T01:03:52;3.68;76.60
74224;SHT31;62585;49.706;18.216;2024-02-14T01:06:18;3.65;77.36
74224;SHT31;62585;49.706;18.216;2024-02-14T01:08:45;3.54;77.19
74224;SHT31;62585;49.706;18.216;2024-02-14T01:11:11;3.54;77.76
74224;SHT31;62585;49.706;18.216;2024-02-14T01:13:38;3.52;77.31
74224;SHT31;62585;49.706;18.216;2024-02-14T01:16:04;3.58;77.11
74224;SHT31;62585;49.706;18.216;2024-02-14T01:18:30;3.54;77.67
74224;SHT31;62585;49.706;18.216;2024-02-14T01:20:57;3.65;78.28
74224;SHT31;62585;49.706;18.216;2024-02-14T01:23:24;3.79;77.94
74224;SHT31;62585;49.706;18.216;2024-02-14T01:25:50;3.86;77.20
74224;SHT31;62585;49.706;18.216;2024-02-14T01:28:16;3.68;78.66
74224;SHT31;62585;49.706;18.216;2024-02-14T01:30:43;3.75;77.93
74224;SHT31;62585;49.706;18.216;2024-02-14T01:33:09;3.69;77.63
74224;SHT31;62585;49.706;18.216;2024-02-14T01:35:34;3.89;77.08
74224;SHT31;62585;49.706;18.216;2024-02-14T01:38:00;3.83;76.87
74224;SHT31;62585;49.706;18.216;2024-02-14T01:40:28;3.72;77.06
74224;SHT31;62585;49.706;18.216;2024-02-14T01:42:54;3.99;76.62
74224;SHT31;62585;49.706;18.216;2024-02-14T01:45:21;4.01;76.24
74224;SHT31;62585;49.706;18.216;2024-02-14T01:47:48;4.00;76.25
74224;SHT31;62585;49.706;18.216;2024-02-14T01:50:16;4.10;76.31
74224;SHT31;62585;49.706;18.216;2024-02-14T01:52:42;3.80;76.09
74224;SHT31;62585;49.706;18.216;2024-02-14T01:55:11;3.82;76.14
74224;SHT31;62585;49.706;18.216;2024-02-14T01:57:38;3.75;76.20
74224;SHT31;62585;49.706;18.216;2024-02-14T02:00:06;3.90;76.16
74224;SHT31;62585;49.706;18.216;2024-02-14T02:02:35;3.76;76.31
74224;SHT31;62585;49.706;18.216;2024-02-14T02:05:05;3.59;76.95
74224;SHT31;62585;49.706;18.216;2024-02-14T02:07:32;3.54;76.80
74224;SHT31;62585;49.706;18.216;2024-02-14T02:09:58;3.59;76.85
74224;SHT31;62585;49.706;18.216;2024-02-14T02:12:24;3.42;77.59
74224;SHT31;62585;49.706;18.216;2024-02-14T02:14:53;3.45;77.05
74224;SHT31;62585;49.706;18.216;2024-02-14T02:17:19;3.68;76.32
74224;SHT31;62585;49.706;18.216;2024-02-14T02:19:46;3.59;75.81
74224;SHT31;62585;49.706;18.216;2024-02-14T02:22:11;3.51;75.51
74224;SHT31;62585;49.706;18.216;2024-02-14T02:24:37;3.39;76.40
74224;SHT31;62585;49.706;18.216;2024-02-14T02:27:03;3.59;76.31
74224;SHT31;62585;49.706;18.216;2024-02-14T02:29:29;3.62;76.16
74224;SHT31;62585;49.706;18.216;2024-02-14T02:31:58;3.66;76.33
74224;SHT31;62585;49.706;18.216;2024-02-14T02:34:23;3.45;75.84
74224;SHT31;62585;49.706;18.216;2024-02-14T02:36:49;3.39;76.12
74224;SHT31;62585;49.706;18.216;2024-02-14T02:39:16;3.66;75.66
74224;SHT31;62585;49.706;18.216;2024-02-14T02:41:42;3.56;75.24
74224;SHT31;62585;49.706;18.216;2024-02-14T02:44:08;3.42;75.83
74224;SHT31;62585;49.706;18.216;2024-02-14T02:46:33;3.49;76.54
74224;SHT31;62585;49.706;18.216;2024-02-14T02:48:59;3.61;76.18
74224;SHT31;62585;49.706;18.216;2024-02-14T02:51:25;3.42;76.13
74224;SHT31;62585;49.706;18.216;2024-02-14T02:53:51;3.31;75.76
74224;SHT31;62585;49.706;18.216;2024-02-14T02:56:19;3.36;76.02
74224;SHT31;62585;49.706;18.216;2024-02-14T02:58:47;3.43;75.90
74224;SHT31;62585;49.706;18.216;2024-02-14T03:01:14;3.30;76.57
74224;SHT31;62585;49.706;18.216;2024-02-14T03:03:40;3.36;75.81
74224;SHT31;62585;49.706;18.216;2024-02-14T03:06:06;3.36;75.87
74224;SHT31;62585;49.706;18.216;2024-02-14T03:08:32;3.28;75.68
74224;SHT31;62585;49.706;18.216;2024-02-14T03:11:06;3.24;76.06
74224;SHT31;62585;49.706;18.216;2024-02-14T03:13:32;2.84;76.98
74224;SHT31;62585;49.706;18.216;2024-02-14T03:15:58;2.83;77.11
74224;SHT31;62585;49.706;18.216;2024-02-14T03:18:24;2.67;77.49
74224;SHT31;62585;49.706;18.216;2024-02-14T03:20:50;2.72;77.21
74224;SHT31;62585;49.706;18.216;2024-02-14T03:23:18;2.48;78.41
74224;SHT31;62585;49.706;18.216;2024-02-14T03:25:44;2.34;78.58
74224;SHT31;62585;49.706;18.216;2024-02-14T03:28:10;2.38;78.82
74224;SHT31;62585;49.706;18.216;2024-02-14T03:30:38;2.42;78.94
74224;SHT31;62585;49.706;18.216;2024-02-14T03:33:07;2.45;78.49
74224;SHT31;62585;49.706;18.216;2024-02-14T03:35:36;2.57;78.16
74224;SHT31;62585;49.706;18.216;2024-02-14T03:38:02;2.52;77.48
74224;SHT31;62585;49.706;18.216;2024-02-14T03:40:29;2.48;77.59
74224;SHT31;62585;49.706;18.216;2024-02-14T03:42:58;2.55;77.41
74224;SHT31;62585;49.706;18.216;2024-02-14T03:45:24;2.45;77.74
74224;SHT31;62585;49.706;18.216;2024-02-14T03:47:50;2.65;77.49
74224;SHT31;62585;49.706;18.216;2024-02-14T03:50:16;2.49;77.52
74224;SHT31;62585;49.706;18.216;2024-02-14T03:52:42;2.13;79.74
74224;SHT31;62585;49.706;18.216;2024-02-14T03:55:12;2.03;79.72
74224;SHT31;62585;49.706;18.216;2024-02-14T03:57:39;2.31;78.67
74224;SHT31;62585;49.706;18.216;2024-02-14T04:00:06;2.29;78.70
74224;SHT31;62585;49.706;18.216;2024-02-14T04:02:35;2.46;77.91
74224;SHT31;62585;49.706;18.216;2024-02-14T04:05:02;2.63;77.35
74224;SHT31;62585;49.706;18.216;2024-02-14T04:07:32;2.65;76.99
74224;SHT31;62585;49.706;18.216;2024-02-14T04:10:00;2.79;76.77
74224;SHT31;62585;49.706;18.216;2024-02-14T04:12:25;2.90;76.33
74224;SHT31;62585;49.706;18.216;2024-02-14T04:14:51;2.75;76.25
74224;SHT31;62585;49.706;18.216;2024-02-14T04:17:17;2.49;77.76
74224;SHT31;62585;49.706;18.216;2024-02-14T04:19:43;2.27;78.78
74224;SHT31;62585;49.706;18.216;2024-02-14T04:22:08;2.49;78.78
74224;SHT31;62585;49.706;18.216;2024-02-14T04:24:34;2.42;78.87
74224;SHT31;62585;49.706;18.216;2024-02-14T04:27:00;2.63;78.09
74224;SHT31;62585;49.706;18.216;2024-02-14T04:29:28;2.48;77.82
74224;SHT31;62585;49.706;18.216;2024-02-14T04:31:56;2.50;78.03
74224;SHT31;62585;49.706;18.216;2024-02-14T04:34:22;2.46;77.90
74224;SHT31;62585;49.706;18.216;2024-02-14T04:36:48;2.53;77.58
74224;SHT31;62585;49.706;18.216;2024-02-14T04:39:14;2.55;77.31
74224;SHT31;62585;49.706;18.216;2024-02-14T04:41:39;2.39;78.47
74224;SHT31;62585;49.706;18.216;2024-02-14T04:44:05;2.36;78.63
74224;SHT31;62585;49.706;18.216;2024-02-14T04:46:34;2.38;77.39
74224;SHT31;62585;49.706;18.216;2024-02-14T04:49:01;2.28;77.61
74224;SHT31;62585;49.706;18.216;2024-02-14T04:51:29;2.18;77.81
74224;SHT31;62585;49.706;18.216;2024-02-14T04:53:55;1.97;78.20
74224;SHT31;62585;49.706;18.216;2024-02-14T04:56:27;1.76;79.30
74224;SHT31;62585;49.706;18.216;2024-02-14T04:58:56;1.83;79.44
74224;SHT31;62585;49.706;18.216;2024-02-14T05:01:21;1.83;79.47
74224;SHT31;62585;49.706;18.216;2024-02-14T05:03:48;1.74;79.81
74224;SHT31;62585;49.706;18.216;2024-02-14T05:06:15;1.88;79.58
74224;SHT31;62585;49.706;18.216;2024-02-14T05:08:41;1.81;79.85
74224;SHT31;62585;49.706;18.216;2024-02-14T05:11:06;1.87;79.44
74224;SHT31;62585;49.706;18.216;2024-02-14T05:13:32;1.77;79.64
74224;SHT31;62585;49.706;18.216;2024-02-14T05:16:02;1.71;80.43
74224;SHT31;62585;49.706;18.216;2024-02-14T05:18:28;1.91;79.91
74224;SHT31;62585;49.706;18.216;2024-02-14T05:20:53;1.84;79.79
74224;SHT31;62585;49.706;18.216;2024-02-14T05:23:19;1.86;80.11
74224;SHT31;62585;49.706;18.216;2024-02-14T05:25:45;1.93;79.85
74224;SHT31;62585;49.706;18.216;2024-02-14T05:28:11;1.93;80.49
74224;SHT31;62585;49.706;18.216;2024-02-14T05:30:39;1.93;80.50
74224;SHT31;62585;49.706;18.216;2024-02-14T05:33:05;2.03;79.85
74224;SHT31;62585;49.706;18.216;2024-02-14T05:35:30;1.96;79.91
74224;SHT31;62585;49.706;18.216;2024-02-14T05:37:56;2.10;79.47
74224;SHT31;62585;49.706;18.216;2024-02-14T05:40:22;2.17;78.89
74224;SHT31;62585;49.706;18.216;2024-02-14T05:42:47;2.14;78.64
74224;SHT31;62585;49.706;18.216;2024-02-14T05:45:13;2.10;78.33
74224;SHT31;62585;49.706;18.216;2024-02-14T05:47:39;2.18;78.48
74224;SHT31;62585;49.706;18.216;2024-02-14T05:50:05;2.21;79.01
74224;SHT31;62585;49.706;18.216;2024-02-14T05:52:33;2.25;79.01
74224;SHT31;62585;49.706;18.216;2024-02-14T05:54:58;2.39;78.65
74224;SHT31;62585;49.706;18.216;2024-02-14T05:57:24;2.52;78.13
74224;SHT31;62585;49.706;18.216;2024-02-14T05:59:50;2.69;77.41
74224;SHT31;62585;49.706;18.216;2024-02-14T06:02:15;2.46;77.40
74224;SHT31;62585;49.706;18.216;2024-02-14T06:04:41;1.97;78.08
74224;SHT31;62585;49.706;18.216;2024-02-14T06:07:08;2.06;77.79
74224;SHT31;62585;49.706;18.216;2024-02-14T06:09:36;1.74;78.32
74224;SHT31;62585;49.706;18.216;2024-02-14T06:12:02;1.71;77.98
74224;SHT31;62585;49.706;18.216;2024-02-14T06:14:28;1.55;78.48
74224;SHT31;62585;49.706;18.216;2024-02-14T06:16:56;1.66;78.66
74224;SHT31;62585;49.706;18.216;2024-02-14T06:19:24;1.91;78.05
74224;SHT31;62585;49.706;18.216;2024-02-14T06:21:50;1.98;78.11
74224;SHT31;62585;49.706;18.216;2024-02-14T06:24:16;1.56;79.16
74224;SHT31;62585;49.706;18.216;2024-02-14T06:26:45;1.48;80.05
74224;SHT31;62585;49.706;18.216;2024-02-14T06:29:11;1.46;80.52
74224;SHT31;62585;49.706;18.216;2024-02-14T06:31:37;1.62;80.00
74224;SHT31;62585;49.706;18.216;2024-02-14T06:34:02;1.94;79.06
74224;SHT31;62585;49.706;18.216;2024-02-14T06:36:28;1.98;78.46
74224;SHT31;62585;49.706;18.216;2024-02-14T06:38:54;1.86;78.50
74224;SHT31;62585;49.706;18.216;2024-02-14T06:41:20;2.07;78.13
74224;SHT31;62585;49.706;18.216;2024-02-14T06:43:46;2.04;78.06
74224;SHT31;62585;49.706;18.216;2024-02-14T06:46:12;2.03;78.37
74224;SHT31;62585;49.706;18.216;2024-02-14T06:48:38;2.20;78.43
74224;SHT31;62585;49.706;18.216;2024-02-14T06:51:06;2.22;78.66
74224;SHT31;62585;49.706;18.216;2024-02-14T06:53:32;2.35;78.55
74224;SHT31;62585;49.706;18.216;2024-02-14T06:55:58;2.32;78.51
74224;SHT31;62585;49.706;18.216;2024-02-14T06:58:24;2.49;78.36
74224;SHT31;62585;49.706;18.216;2024-02-14T07:00:49;2.35;78.98
74224;SHT31;62585;49.706;18.216;2024-02-14T07:03:15;2.62;78.19
74224;SHT31;62585;49.706;18.216;2024-02-14T07:05:41;2.75;77.81
74224;SHT31;62585;49.706;18.216;2024-02-14T07:08:07;2.83;78.52
74224;SHT31;62585;49.706;18.216;2024-02-14T07:10:33;2.93;78.15
74224;SHT31;62585;49.706;18.216;2024-02-14T07:12:59;2.93;78.36
74224;SHT31;62585;49.706;18.216;2024-02-14T07:15:24;2.75;78.77
74224;SHT31;62585;49.706;18.216;2024-02-14T07:17:54;2.72;79.27
74224;SHT31;62585;49.706;18.216;2024-02-14T07:20:21;2.92;78.72
74224;SHT31;62585;49.706;18.216;2024-02-14T07:22:47;3.13;78.42
74224;SHT31;62585;49.706;18.216;2024-02-14T07:25:13;3.22;77.87
74224;SHT31;62585;49.706;18.216;2024-02-14T07:27:39;3.39;77.19
74224;SHT31;62585;49.706;18.216;2024-02-14T07:30:06;3.32;77.30
74224;SHT31;62585;49.706;18.216;2024-02-14T07:32:32;3.21;78.14
74224;SHT31;62585;49.706;18.216;2024-02-14T07:34:58;3.41;77.46
74224;SHT31;62585;49.706;18.216;2024-02-14T07:37:24;3.11;78.31
74224;SHT31;62585;49.706;18.216;2024-02-14T07:39:51;3.07;79.11
74224;SHT31;62585;49.706;18.216;2024-02-14T07:42:16;2.89;79.85
74224;SHT31;62585;49.706;18.216;2024-02-14T07:44:42;3.41;79.34
74224;SHT31;62585;49.706;18.216;2024-02-14T07:47:08;3.76;77.97
74224;SHT31;62585;49.706;18.216;2024-02-14T07:49:34;3.94;77.10
74224;SHT31;62585;49.706;18.216;2024-02-14T07:51:59;3.93;77.53
74224;SHT31;62585;49.706;18.216;2024-02-14T07:54:25;4.04;76.91
74224;SHT31;62585;49.706;18.216;2024-02-14T07:56:51;4.21;76.18
74224;SHT31;62585;49.706;18.216;2024-02-14T07:59:17;4.30;75.41
74224;SHT31;62585;49.706;18.216;2024-02-14T08:01:42;4.42;75.65
74224;SHT31;62585;49.706;18.216;2024-02-14T08:04:09;4.72;75.27
74224;SHT31;62585;49.706;18.216;2024-02-14T08:06:35;4.58;75.29
74224;SHT31;62585;49.706;18.216;2024-02-14T08:09:00;4.89;74.75
74224;SHT31;62585;49.706;18.216;2024-02-14T08:11:32;5.03;74.39
74224;SHT31;62585;49.706;18.216;2024-02-14T08:13:57;4.99;74.00
74224;SHT31;62585;49.706;18.216;2024-02-14T08:16:23;4.97;73.74
74224;SHT31;62585;49.706;18.216;2024-02-14T08:18:49;5.19;74.54
74224;SHT31;62585;49.706;18.216;2024-02-14T08:21:16;5.10;74.74
74224;SHT31;62585;49.706;18.216;2024-02-14T08:23:42;5.19;74.53
74224;SHT31;62585;49.706;18.216;2024-02-14T08:26:08;5.28;73.50
74224;SHT31;62585;49.706;18.216;2024-02-14T08:28:37;5.22;73.70
74224;SHT31;62585;49.706;18.216;2024-02-14T08:31:03;5.26;73.91
74224;SHT31;62585;49.706;18.216;2024-02-14T08:33:28;5.34;74.68
74224;SHT31;62585;49.706;18.216;2024-02-14T08:35:54;5.76;73.61
74224;SHT31;62585;49.706;18.216;2024-02-14T08:38:22;6.07;72.21
74224;SHT31;62585;49.706;18.216;2024-02-14T08:40:48;6.09;72.11
74224;SHT31;62585;49.706;18.216;2024-02-14T08:43:14;6.50;73.10
74224;SHT31;62585;49.706;18.216;2024-02-14T08:45:40;6.64;70.55
74224;SHT31;62585;49.706;18.216;2024-02-14T08:48:06;6.74;70.68
74224;SHT31;62585;49.706;18.216;2024-02-14T08:50:32;6.99;69.42
74224;SHT31;62585;49.706;18.216;2024-02-14T08:52:58;7.02;68.61
74224;SHT31;62585;49.706;18.216;2024-02-14T08:55:24;7.37;68.39
74224;SHT31;62585;49.706;18.216;2024-02-14T08:57:49;7.26;68.19
74224;SHT31;62585;49.706;18.216;2024-02-14T09:00:15;7.28;68.29
74224;SHT31;62585;49.706;18.216;2024-02-14T09:02:47;7.42;68.41
74224;SHT31;62585;49.706;18.216;2024-02-14T09:05:13;7.48;69.03
74224;SHT31;62585;49.706;18.216;2024-02-14T09:07:39;7.55;68.94
74224;SHT31;62585;49.706;18.216;2024-02-14T09:10:07;7.82;68.20
74224;SHT31;62585;49.706;18.216;2024-02-14T09:12:33;8.17;68.13
74224;SHT31;62585;49.706;18.216;2024-02-14T09:14:59;8.32;67.39
74224;SHT31;62585;49.706;18.216;2024-02-14T09:17:24;8.28;66.61
74224;SHT31;62585;49.706;18.216;2024-02-14T09:19:50;8.06;66.56
74224;SHT31;62585;49.706;18.216;2024-02-14T09:22:17;8.37;66.35
74224;SHT31;62585;49.706;18.216;2024-02-14T09:24:50;8.68;66.38
74224;SHT31;62585;49.706;18.216;2024-02-14T09:27:16;9.04;65.76
74224;SHT31;62585;49.706;18.216;2024-02-14T09:29:42;9.08;65.60
74224;SHT31;62585;49.706;18.216;2024-02-14T09:32:08;9.37;65.20
74224;SHT31;62585;49.706;18.216;2024-02-14T09:34:34;9.46;64.99
74224;SHT31;62585;49.706;18.216;2024-02-14T09:37:00;9.64;63.92
74224;SHT31;62585;49.706;18.216;2024-02-14T09:39:26;9.42;63.92
74224;SHT31;62585;49.706;18.216;2024-02-14T09:41:54;9.14;64.40
74224;SHT31;62585;49.706;18.216;2024-02-14T09:44:27;8.92;65.15
74224;SHT31;62585;49.706;18.216;2024-02-14T09:46:55;9.23;63.90
74224;SHT31;62585;49.706;18.216;2024-02-14T09:49:22;9.32;65.02
74224;SHT31;62585;49.706;18.216;2024-02-14T09:51:49;9.46;63.63
74224;SHT31;62585;49.706;18.216;2024-02-14T09:54:16;9.54;64.26
74224;SHT31;62585;49.706;18.216;2024-02-14T09:56:43;9.43;62.73
74224;SHT31;62585;49.706;18.216;2024-02-14T09:59:13;9.56;62.52
74224;SHT31;62585;49.706;18.216;2024-02-14T10:01:40;9.74;63.05
74224;SHT31;62585;49.706;18.216;2024-02-14T10:04:06;9.25;63.88
74224;SHT31;62585;49.706;18.216;2024-02-14T10:06:32;9.09;64.65
74224;SHT31;62585;49.706;18.216;2024-02-14T10:08:59;8.78;64.83
74224;SHT31;62585;49.706;18.216;2024-02-14T10:11:25;8.85;65.30
74224;SHT31;62585;49.706;18.216;2024-02-14T10:13:52;8.77;64.79
74224;SHT31;62585;49.706;18.216;2024-02-14T10:16:19;8.65;65.23
74224;SHT31;62585;49.706;18.216;2024-02-14T10:18:45;8.65;65.45
74224;SHT31;62585;49.706;18.216;2024-02-14T10:21:16;8.63;65.95
74224;SHT31;62585;49.706;18.216;2024-02-14T10:23:45;8.89;65.51
74224;SHT31;62585;49.706;18.216;2024-02-14T10:26:16;8.72;65.20
74224;SHT31;62585;49.706;18.216;2024-02-14T10:28:42;8.40;65.88
74224;SHT31;62585;49.706;18.216;2024-02-14T10:31:10;8.28;66.39
74224;SHT31;62585;49.706;18.216;2024-02-14T10:33:36;8.02;66.89
74224;SHT31;62585;49.706;18.216;2024-02-14T10:36:02;8.33;67.72
74224;SHT31;62585;49.706;18.216;2024-02-14T10:38:32;8.44;66.67
74224;SHT31;62585;49.706;18.216;2024-02-14T10:41:00;8.57;67.55
74224;SHT31;62585;49.706;18.216;2024-02-14T10:43:26;8.46;65.77
74224;SHT31;62585;49.706;18.216;2024-02-14T10:45:56;8.63;65.58
74224;SHT31;62585;49.706;18.216;2024-02-14T10:48:24;8.68;64.66
74224;SHT31;62585;49.706;18.216;2024-02-14T10:50:57;8.80;65.22
74224;SHT31;62585;49.706;18.216;2024-02-14T10:53:25;8.99;64.37
74224;SHT31;62585;49.706;18.216;2024-02-14T10:55:55;9.12;64.78
74224;SHT31;62585;49.706;18.216;2024-02-14T10:58:23;9.07;62.78
74224;SHT31;62585;49.706;18.216;2024-02-14T11:00:50;8.85;63.41
74224;SHT31;62585;49.706;18.216;2024-02-14T11:03:17;8.74;64.23
74224;SHT31;62585;49.706;18.216;2024-02-14T11:05:44;8.81;63.02
74224;SHT31;62585;49.706;18.216;2024-02-14T11:08:14;8.92;62.70
74224;SHT31;62585;49.706;18.216;2024-02-14T11:10:40;9.26;63.09
74224;SHT31;62585;49.706;18.216;2024-02-14T11:13:12;9.29;62.43
74224;SHT31;62585;49.706;18.216;2024-02-14T11:15:39;9.20;62.15
74224;SHT31;62585;49.706;18.216;2024-02-14T11:18:06;8.93;62.27
74224;SHT31;62585;49.706;18.216;2024-02-14T11:20:36;8.92;62.35
74224;SHT31;62585;49.706;18.216;2024-02-14T11:23:05;9.30;61.81
74224;SHT31;62585;49.706;18.216;2024-02-14T11:25:35;9.78;60.15
74224;SHT31;62585;49.706;18.216;2024-02-14T11:28:23;9.99;60.10
74224;SHT31;62585;49.706;18.216;2024-02-14T11:30:51;10.38;60.35
74224;SHT31;62585;49.706;18.216;2024-02-14T11:33:24;10.56;59.14
74224;SHT31;62585;49.706;18.216;2024-02-14T11:35:51;10.61;59.34
74224;SHT31;62585;49.706;18.216;2024-02-14T11:38:22;10.67;58.76
74224;SHT31;62585;49.706;18.216;2024-02-14T11:40:53;10.48;59.22
74224;SHT31;62585;49.706;18.216;2024-02-14T11:43:20;10.52;59.73
74224;SHT31;62585;49.706;18.216;2024-02-14T11:45:46;10.33;60.08
74224;SHT31;62585;49.706;18.216;2024-02-14T11:48:16;10.28;60.40
74224;SHT31;62585;49.706;18.216;2024-02-14T11:50:44;10.12;60.52
74224;SHT31;62585;49.706;18.216;2024-02-14T11:53:11;10.09;60.66
74224;SHT31;62585;49.706;18.216;2024-02-14T11:55:38;10.49;59.79
74224;SHT31;62585;49.706;18.216;2024-02-14T11:58:11;10.63;58.90
74224;SHT31;62585;49.706;18.216;2024-02-14T12:00:38;11.14;58.23
74224;SHT31;62585;49.706;18.216;2024-02-14T12:03:11;11.17;57.26
74224;SHT31;62585;49.706;18.216;2024-02-14T12:05:38;11.34;57.43
74224;SHT31;62585;49.706;18.216;2024-02-14T12:08:07;11.28;56.34
74224;SHT31;62585;49.706;18.216;2024-02-14T12:10:34;10.87;58.03
74224;SHT31;62585;49.706;18.216;2024-02-14T12:13:08;10.33;58.64
74224;SHT31;62585;49.706;18.216;2024-02-14T12:15:42;10.42;58.85
74224;SHT31;62585;49.706;18.216;2024-02-14T12:18:09;10.23;58.24
74224;SHT31;62585;49.706;18.216;2024-02-14T12:20:37;10.43;59.00
74224;SHT31;62585;49.706;18.216;2024-02-14T12:23:03;10.35;58.72
74224;SHT31;62585;49.706;18.216;2024-02-14T12:25:30;10.46;58.03
74224;SHT31;62585;49.706;18.216;2024-02-14T12:27:58;10.49;58.57
74224;SHT31;62585;49.706;18.216;2024-02-14T12:33:07;10.28;58.98
74224;SHT31;62585;49.706;18.216;2024-02-14T12:35:36;10.61;58.36
74224;SHT31;62585;49.706;18.216;2024-02-14T12:38:08;10.56;58.29
74224;SHT31;62585;49.706;18.216;2024-02-14T12:40:35;11.38;56.97
74224;SHT31;62585;49.706;18.216;2024-02-14T12:43:01;11.43;55.98
74224;SHT31;62585;49.706;18.216;2024-02-14T12:45:27;11.43;56.61
74224;SHT31;62585;49.706;18.216;2024-02-14T12:47:53;11.94;56.18
74224;SHT31;62585;49.706;18.216;2024-02-14T12:50:22;11.67;55.47
74224;SHT31;62585;49.706;18.216;2024-02-14T12:52:48;11.36;56.64
74224;SHT31;62585;49.706;18.216;2024-02-14T12:55:14;11.03;57.47
74224;SHT31;62585;49.706;18.216;2024-02-14T12:57:40;11.15;57.21
74224;SHT31;62585;49.706;18.216;2024-02-14T13:00:07;10.91;57.92
74224;SHT31;62585;49.706;18.216;2024-02-14T13:02:35;11.06;57.25
74224;SHT31;62585;49.706;18.216;2024-02-14T13:05:01;11.00;57.51
74224;SHT31;62585;49.706;18.216;2024-02-14T13:07:28;10.80;58.55
74224;SHT31;62585;49.706;18.216;2024-02-14T13:09:54;10.87;58.86
74224;SHT31;62585;49.706;18.216;2024-02-14T13:12:20;10.77;59.32
74224;SHT31;62585;49.706;18.216;2024-02-14T13:14:46;10.60;59.86
74224;SHT31;62585;49.706;18.216;2024-02-14T13:17:12;10.59;59.33
74224;SHT31;62585;49.706;18.216;2024-02-14T13:19:40;10.50;59.76
74224;SHT31;62585;49.706;18.216;2024-02-14T13:22:08;10.36;60.56
74224;SHT31;62585;49.706;18.216;2024-02-14T13:24:35;10.57;60.44
74224;SHT31;62585;49.706;18.216;2024-02-14T13:27:01;10.33;60.90
74224;SHT31;62585;49.706;18.216;2024-02-14T13:29:27;10.18;61.84
74224;SHT31;62585;49.706;18.216;2024-02-14T13:31:53;10.28;62.03
74224;SHT31;62585;49.706;18.216;2024-02-14T13:34:19;10.43;61.75
74224;SHT31;62585;49.706;18.216;2024-02-14T13:36:46;10.18;62.33
74224;SHT31;62585;49.706;18.216;2024-02-14T13:39:12;10.41;62.89
74224;SHT31;62585;49.706;18.216;2024-02-14T13:41:40;10.46;61.98
74224;SHT31;62585;49.706;18.216;2024-02-14T13:44:09;10.33;63.40
74224;SHT31;62585;49.706;18.216;2024-02-14T13:46:36;10.59;62.87
74224;SHT31;62585;49.706;18.216;2024-02-14T13:49:02;10.57;62.00
74224;SHT31;62585;49.706;18.216;2024-02-14T13:51:27;10.79;61.68
74224;SHT31;62585;49.706;18.216;2024-02-14T13:53:53;10.46;62.55
74224;SHT31;62585;49.706;18.216;2024-02-14T13:56:19;10.46;62.75
74224;SHT31;62585;49.706;18.216;2024-02-14T13:58:48;10.28;63.13
74224;SHT31;62585;49.706;18.216;2024-02-14T14:01:17;10.31;63.26
74224;SHT31;62585;49.706;18.216;2024-02-14T14:03:43;9.87;63.90
74224;SHT31;62585;49.706;18.216;2024-02-14T14:06:09;9.91;64.83
74224;SHT31;62585;49.706;18.216;2024-02-14T14:08:35;9.99;64.25
74224;SHT31;62585;49.706;18.216;2024-02-14T14:11:04;9.87;64.72
74224;SHT31;62585;49.706;18.216;2024-02-14T14:13:30;9.90;64.65
74224;SHT31;62585;49.706;18.216;2024-02-14T14:16:02;9.94;65.00
74224;SHT31;62585;49.706;18.216;2024-02-14T14:18:31;9.88;65.00
74224;SHT31;62585;49.706;18.216;2024-02-14T14:20:58;10.15;64.39
74224;SHT31;62585;49.706;18.216;2024-02-14T14:23:24;10.23;64.38
74224;SHT31;62585;49.706;18.216;2024-02-14T14:25:50;10.85;62.78
74224;SHT31;62585;49.706;18.216;2024-02-14T14:28:15;10.81;62.55
74224;SHT31;62585;49.706;18.216;2024-02-14T14:30:43;10.85;62.22
74224;SHT31;62585;49.706;18.216;2024-02-14T14:33:09;11.07;61.65
74224;SHT31;62585;49.706;18.216;2024-02-14T14:35:36;11.11;61.55
74224;SHT31;62585;49.706;18.216;2024-02-14T14:38:05;11.15;61.42
74224;SHT31;62585;49.706;18.216;2024-02-14T14:40:31;10.97;62.03
74224;SHT31;62585;49.706;18.216;2024-02-14T14:42:57;10.67;62.39
74224;SHT31;62585;49.706;18.216;2024-02-14T14:45:23;10.21;62.52
74224;SHT31;62585;49.706;18.216;2024-02-14T14:47:48;10.33;62.23
74224;SHT31;62585;49.706;18.216;2024-02-14T14:50:15;10.05;62.95
74224;SHT31;62585;49.706;18.216;2024-02-14T14:52:43;9.99;62.78
74224;SHT31;62585;49.706;18.216;2024-02-14T14:55:10;9.83;63.58
74224;SHT31;62585;49.706;18.216;2024-02-14T14:57:36;9.69;63.89
74224;SHT31;62585;49.706;18.216;2024-02-14T15:00:12;9.60;64.37
74224;SHT31;62585;49.706;18.216;2024-02-14T15:02:41;9.54;64.77
74224;SHT31;62585;49.706;18.216;2024-02-14T15:05:13;9.73;64.75
74224;SHT31;62585;49.706;18.216;2024-02-14T15:07:40;9.93;64.47
74224;SHT31;62585;49.706;18.216;2024-02-14T15:10:06;9.69;64.99
74224;SHT31;62585;49.706;18.216;2024-02-14T15:12:36;10.16;64.45
74224;SHT31;62585;49.706;18.216;2024-02-14T15:15:03;10.57;63.43
74224;SHT31;62585;49.706;18.216;2024-02-14T15:17:29;10.69;62.66
74224;SHT31;62585;49.706;18.216;2024-02-14T15:19:56;10.94;62.36
74224;SHT31;62585;49.706;18.216;2024-02-14T15:22:22;10.96;61.90
74224;SHT31;62585;49.706;18.216;2024-02-14T15:24:50;10.81;62.72
74224;SHT31;62585;49.706;18.216;2024-02-14T15:27:17;10.64;63.36
74224;SHT31;62585;49.706;18.216;2024-02-14T15:29:50;10.46;63.59